sensor_id;sensor_type;location;lat;lon;timestamp;P1;durP1;ratioP1;P2;durP2;ratioP2
27895;SDS011;15241;48.374;10.876;2023-04-24T00:00:15;2.08;;;0.78;;
27895;SDS011;15241;48.374;10.876;2023-04-24T00:05:15;1.47;;;0.93;;
27895;SDS011;15241;48.374;10.876;2023-04-24T00:10:14;1.60;;;0.65;;
27895;SDS011;15241;48.374;10.876;2023-04-24T00:15:13;1.62;;;0.80;;
27895;SDS011;15241;48.374;10.876;2023-04-24T00:20:12;0.82;;;0.70;;
27895;SDS011;15241;48.374;10.876;2023-04-24T00:25:11;1.70;;;0.60;;
27895;SDS011;15241;48.374;10.876;2023-04-24T00:30:10;1.87;;;0.80;;
27895;SDS011;15241;48.374;10.876;2023-04-24T00:35:09;1.07;;;0.60;;
27895;SDS011;15241;48.374;10.876;2023-04-24T00:40:09;1.87;;;0.70;;
27895;SDS011;15241;48.374;10.876;2023-04-24T00:45:09;1.05;;;0.68;;
27895;SDS011;15241;48.374;10.876;2023-04-24T00:50:09;2.55;;;0.80;;
27895;SDS011;15241;48.374;10.876;2023-04-24T00:55:09;2.15;;;0.70;;
27895;SDS011;15241;48.374;10.876;2023-04-24T01:00:09;1.00;;;0.70;;
27895;SDS011;15241;48.374;10.876;2023-04-24T01:05:09;5.45;;;0.70;;
27895;SDS011;15241;48.374;10.876;2023-04-24T01:10:09;1.17;;;0.72;;
27895;SDS011;15241;48.374;10.876;2023-04-24T01:15:10;0.90;;;0.57;;
27895;SDS011;15241;48.374;10.876;2023-04-24T01:20:09;3.12;;;0.70;;
27895;SDS011;15241;48.374;10.876;2023-04-24T01:25:09;1.57;;;0.70;;
27895;SDS011;15241;48.374;10.876;2023-04-24T01:30:09;0.40;;;0.40;;
27895;SDS011;15241;48.374;10.876;2023-04-24T01:35:09;1.17;;;0.70;;
27895;SDS011;15241;48.374;10.876;2023-04-24T01:40:09;1.00;;;0.75;;
27895;SDS011;15241;48.374;10.876;2023-04-24T01:45:10;1.77;;;0.78;;
27895;SDS011;15241;48.374;10.876;2023-04-24T01:50:09;2.65;;;0.50;;
27895;SDS011;15241;48.374;10.876;2023-04-24T01:55:09;1.40;;;0.80;;
27895;SDS011;15241;48.374;10.876;2023-04-24T02:00:09;1.27;;;0.60;;
27895;SDS011;15241;48.374;10.876;2023-04-24T02:05:09;1.35;;;0.62;;
27895;SDS011;15241;48.374;10.876;2023-04-24T02:10:09;2.08;;;0.62;;
27895;SDS011;15241;48.374;10.876;2023-04-24T02:15:09;1.35;;;0.68;;
27895;SDS011;15241;48.374;10.876;2023-04-24T02:20:09;0.70;;;0.42;;
27895;SDS011;15241;48.374;10.876;2023-04-24T02:25:09;1.95;;;0.70;;
27895;SDS011;15241;48.374;10.876;2023-04-24T02:30:09;1.92;;;0.60;;
27895;SDS011;15241;48.374;10.876;2023-04-24T02:35:09;1.92;;;0.60;;
27895;SDS011;15241;48.374;10.876;2023-04-24T02:40:09;0.60;;;0.57;;
27895;SDS011;15241;48.374;10.876;2023-04-24T02:45:10;1.77;;;0.68;;
27895;SDS011;15241;48.374;10.876;2023-04-24T02:50:09;1.40;;;0.60;;
27895;SDS011;15241;48.374;10.876;2023-04-24T02:55:08;1.00;;;0.70;;
27895;SDS011;15241;48.374;10.876;2023-04-24T03:00:10;2.55;;;0.85;;
27895;SDS011;15241;48.374;10.876;2023-04-24T03:05:10;3.00;;;1.00;;
27895;SDS011;15241;48.374;10.876;2023-04-24T03:10:09;1.42;;;0.72;;
27895;SDS011;15241;48.374;10.876;2023-04-24T03:15:09;0.62;;;0.62;;
27895;SDS011;15241;48.374;10.876;2023-04-24T03:20:10;0.60;;;0.60;;
27895;SDS011;15241;48.374;10.876;2023-04-24T03:25:09;1.67;;;0.88;;
27895;SDS011;15241;48.374;10.876;2023-04-24T03:30:09;1.60;;;1.02;;
27895;SDS011;15241;48.374;10.876;2023-04-24T03:35:08;2.30;;;0.98;;
27895;SDS011;15241;48.374;10.876;2023-04-24T03:40:09;1.65;;;1.12;;
27895;SDS011;15241;48.374;10.876;2023-04-24T03:45:10;3.15;;;1.00;;
27895;SDS011;15241;48.374;10.876;2023-04-24T03:50:09;0.88;;;0.72;;
27895;SDS011;15241;48.374;10.876;2023-04-24T03:55:08;2.20;;;1.00;;
27895;SDS011;15241;48.374;10.876;2023-04-24T04:00:09;0.95;;;0.82;;
27895;SDS011;15241;48.374;10.876;2023-04-24T04:05:09;3.92;;;1.02;;
27895;SDS011;15241;48.374;10.876;2023-04-24T04:10:08;1.00;;;0.90;;
27895;SDS011;15241;48.374;10.876;2023-04-24T04:15:08;0.70;;;0.70;;
27895;SDS011;15241;48.374;10.876;2023-04-24T04:20:08;0.70;;;0.70;;
27895;SDS011;15241;48.374;10.876;2023-04-24T04:25:08;1.02;;;0.57;;
27895;SDS011;15241;48.374;10.876;2023-04-24T04:30:08;1.20;;;0.90;;
27895;SDS011;15241;48.374;10.876;2023-04-24T04:35:07;1.50;;;0.68;;
27895;SDS011;15241;48.374;10.876;2023-04-24T04:40:08;1.27;;;0.82;;
27895;SDS011;15241;48.374;10.876;2023-04-24T04:45:09;1.42;;;0.95;;
27895;SDS011;15241;48.374;10.876;2023-04-24T04:50:09;0.82;;;0.60;;
27895;SDS011;15241;48.374;10.876;2023-04-24T04:55:08;0.98;;;0.60;;
27895;SDS011;15241;48.374;10.876;2023-04-24T05:00:09;2.20;;;0.78;;
27895;SDS011;15241;48.374;10.876;2023-04-24T05:05:09;1.10;;;0.80;;
27895;SDS011;15241;48.374;10.876;2023-04-24T05:10:09;1.80;;;1.30;;
27895;SDS011;15241;48.374;10.876;2023-04-24T05:15:09;1.70;;;0.70;;
27895;SDS011;15241;48.374;10.876;2023-04-24T05:20:09;2.27;;;0.90;;
27895;SDS011;15241;48.374;10.876;2023-04-24T05:25:08;0.70;;;0.50;;
27895;SDS011;15241;48.374;10.876;2023-04-24T05:30:08;1.30;;;0.62;;
27895;SDS011;15241;48.374;10.876;2023-04-24T05:35:09;0.55;;;0.50;;
27895;SDS011;15241;48.374;10.876;2023-04-24T05:40:09;1.37;;;0.70;;
27895;SDS011;15241;48.374;10.876;2023-04-24T05:45:09;3.55;;;0.60;;
27895;SDS011;15241;48.374;10.876;2023-04-24T05:50:09;1.12;;;0.60;;
27895;SDS011;15241;48.374;10.876;2023-04-24T05:55:08;1.20;;;1.05;;
27895;SDS011;15241;48.374;10.876;2023-04-24T06:00:09;2.02;;;0.90;;
27895;SDS011;15241;48.374;10.876;2023-04-24T06:05:09;0.88;;;0.78;;
27895;SDS011;15241;48.374;10.876;2023-04-24T06:10:09;4.45;;;1.55;;
27895;SDS011;15241;48.374;10.876;2023-04-24T06:15:09;0.62;;;0.50;;
27895;SDS011;15241;48.374;10.876;2023-04-24T06:20:09;1.22;;;0.65;;
27895;SDS011;15241;48.374;10.876;2023-04-24T06:25:09;2.10;;;0.50;;
27895;SDS011;15241;48.374;10.876;2023-04-24T06:30:09;2.83;;;0.70;;
27895;SDS011;15241;48.374;10.876;2023-04-24T06:35:09;2.02;;;0.68;;
27895;SDS011;15241;48.374;10.876;2023-04-24T06:40:09;3.42;;;1.27;;
27895;SDS011;15241;48.374;10.876;2023-04-24T06:45:09;1.32;;;0.53;;
27895;SDS011;15241;48.374;10.876;2023-04-24T06:50:09;2.00;;;0.72;;
27895;SDS011;15241;48.374;10.876;2023-04-24T06:55:12;2.10;;;0.85;;
27895;SDS011;15241;48.374;10.876;2023-04-24T07:00:12;1.10;;;0.50;;
27895;SDS011;15241;48.374;10.876;2023-04-24T07:05:12;1.05;;;0.55;;
27895;SDS011;15241;48.374;10.876;2023-04-24T07:10:11;0.62;;;0.55;;
27895;SDS011;15241;48.374;10.876;2023-04-24T07:15:11;1.67;;;0.62;;
27895;SDS011;15241;48.374;10.876;2023-04-24T07:20:10;0.53;;;0.45;;
27895;SDS011;15241;48.374;10.876;2023-04-24T07:25:09;1.12;;;0.55;;
27895;SDS011;15241;48.374;10.876;2023-04-24T07:30:09;1.70;;;0.60;;
27895;SDS011;15241;48.374;10.876;2023-04-24T07:35:09;1.75;;;0.70;;
27895;SDS011;15241;48.374;10.876;2023-04-24T07:40:09;1.82;;;0.88;;
27895;SDS011;15241;48.374;10.876;2023-04-24T07:45:09;1.60;;;0.45;;
27895;SDS011;15241;48.374;10.876;2023-04-24T07:50:09;2.52;;;1.10;;
27895;SDS011;15241;48.374;10.876;2023-04-24T07:55:08;2.72;;;0.78;;
27895;SDS011;15241;48.374;10.876;2023-04-24T08:00:08;5.45;;;1.22;;
27895;SDS011;15241;48.374;10.876;2023-04-24T08:05:09;4.05;;;1.20;;
27895;SDS011;15241;48.374;10.876;2023-04-24T08:10:09;1.10;;;0.80;;
27895;SDS011;15241;48.374;10.876;2023-04-24T08:15:10;1.00;;;1.00;;
27895;SDS011;15241;48.374;10.876;2023-04-24T08:20:10;4.10;;;1.30;;
27895;SDS011;15241;48.374;10.876;2023-04-24T08:25:10;2.70;;;1.00;;
27895;SDS011;15241;48.374;10.876;2023-04-24T08:30:13;4.55;;;1.95;;
27895;SDS011;15241;48.374;10.876;2023-04-24T08:35:12;3.65;;;1.62;;
27895;SDS011;15241;48.374;10.876;2023-04-24T08:40:12;3.02;;;1.40;;
27895;SDS011;15241;48.374;10.876;2023-04-24T08:45:12;2.20;;;0.85;;
27895;SDS011;15241;48.374;10.876;2023-04-24T08:50:11;1.25;;;0.85;;
27895;SDS011;15241;48.374;10.876;2023-04-24T08:55:10;2.12;;;0.95;;
27895;SDS011;15241;48.374;10.876;2023-04-24T09:00:11;3.30;;;0.90;;
27895;SDS011;15241;48.374;10.876;2023-04-24T09:05:11;1.17;;;0.90;;
27895;SDS011;15241;48.374;10.876;2023-04-24T09:10:11;2.27;;;1.30;;
27895;SDS011;15241;48.374;10.876;2023-04-24T09:15:11;1.77;;;1.45;;
27895;SDS011;15241;48.374;10.876;2023-04-24T09:20:11;1.42;;;1.12;;
27895;SDS011;15241;48.374;10.876;2023-04-24T09:25:10;1.30;;;1.20;;
27895;SDS011;15241;48.374;10.876;2023-04-24T09:30:10;2.27;;;1.40;;
27895;SDS011;15241;48.374;10.876;2023-04-24T09:35:11;2.52;;;1.35;;
27895;SDS011;15241;48.374;10.876;2023-04-24T09:40:15;2.80;;;1.30;;
27895;SDS011;15241;48.374;10.876;2023-04-24T09:50:15;2.50;;;1.60;;
27895;SDS011;15241;48.374;10.876;2023-04-24T09:55:15;2.75;;;1.30;;
27895;SDS011;15241;48.374;10.876;2023-04-24T10:00:22;2.03;;;1.20;;
27895;SDS011;15241;48.374;10.876;2023-04-24T10:05:23;1.50;;;1.20;;
27895;SDS011;15241;48.374;10.876;2023-04-24T10:10:24;2.58;;;1.00;;
27895;SDS011;15241;48.374;10.876;2023-04-24T10:15:23;3.62;;;1.32;;
27895;SDS011;15241;48.374;10.876;2023-04-24T10:20:23;2.30;;;1.07;;
27895;SDS011;15241;48.374;10.876;2023-04-24T10:25:25;3.80;;;1.80;;
27895;SDS011;15241;48.374;10.876;2023-04-24T10:30:26;2.77;;;1.40;;
27895;SDS011;15241;48.374;10.876;2023-04-24T10:35:26;4.00;;;1.40;;
27895;SDS011;15241;48.374;10.876;2023-04-24T10:40:27;4.72;;;2.55;;
27895;SDS011;15241;48.374;10.876;2023-04-24T10:45:28;2.02;;;1.32;;
27895;SDS011;15241;48.374;10.876;2023-04-24T10:50:28;6.00;;;1.80;;
27895;SDS011;15241;48.374;10.876;2023-04-24T10:55:44;1.42;;;1.17;;
27895;SDS011;15241;48.374;10.876;2023-04-24T11:00:54;1.30;;;0.90;;
27895;SDS011;15241;48.374;10.876;2023-04-24T11:05:59;2.87;;;1.62;;
27895;SDS011;15241;48.374;10.876;2023-04-24T11:11:00;1.00;;;0.95;;
27895;SDS011;15241;48.374;10.876;2023-04-24T11:16:13;2.67;;;1.70;;
27895;SDS011;15241;48.374;10.876;2023-04-24T11:21:24;3.30;;;2.22;;
27895;SDS011;15241;48.374;10.876;2023-04-24T11:26:24;4.62;;;1.22;;
27895;SDS011;15241;48.374;10.876;2023-04-24T11:31:40;4.55;;;2.08;;
27895;SDS011;15241;48.374;10.876;2023-04-24T11:36:42;8.65;;;1.10;;
27895;SDS011;15241;48.374;10.876;2023-04-24T11:41:41;4.17;;;1.10;;
27895;SDS011;15241;48.374;10.876;2023-04-24T11:46:40;3.12;;;1.10;;
27895;SDS011;15241;48.374;10.876;2023-04-24T11:51:39;2.55;;;1.05;;
27895;SDS011;15241;48.374;10.876;2023-04-24T11:56:38;2.00;;;1.00;;
27895;SDS011;15241;48.374;10.876;2023-04-24T12:01:45;2.40;;;1.30;;
27895;SDS011;15241;48.374;10.876;2023-04-24T12:07:00;2.20;;;0.80;;
27895;SDS011;15241;48.374;10.876;2023-04-24T12:11:59;4.28;;;1.52;;
27895;SDS011;15241;48.374;10.876;2023-04-24T12:17:07;3.40;;;1.20;;
27895;SDS011;15241;48.374;10.876;2023-04-24T12:22:06;3.58;;;1.50;;
27895;SDS011;15241;48.374;10.876;2023-04-24T12:27:05;3.47;;;1.25;;
27895;SDS011;15241;48.374;10.876;2023-04-24T12:32:04;1.40;;;1.10;;
27895;SDS011;15241;48.374;10.876;2023-04-24T12:37:10;3.42;;;0.82;;
27895;SDS011;15241;48.374;10.876;2023-04-24T12:42:09;2.83;;;1.00;;
27895;SDS011;15241;48.374;10.876;2023-04-24T12:47:08;1.72;;;1.05;;
27895;SDS011;15241;48.374;10.876;2023-04-24T12:52:07;4.20;;;1.50;;
27895;SDS011;15241;48.374;10.876;2023-04-24T12:57:06;5.20;;;1.00;;
27895;SDS011;15241;48.374;10.876;2023-04-24T13:02:05;6.47;;;1.30;;
27895;SDS011;15241;48.374;10.876;2023-04-24T13:07:05;2.67;;;1.20;;
27895;SDS011;15241;48.374;10.876;2023-04-24T13:12:04;4.20;;;1.40;;
27895;SDS011;15241;48.374;10.876;2023-04-24T13:17:03;3.95;;;1.30;;
27895;SDS011;15241;48.374;10.876;2023-04-24T13:22:03;1.27;;;0.88;;
27895;SDS011;15241;48.374;10.876;2023-04-24T13:27:02;0.80;;;0.65;;
27895;SDS011;15241;48.374;10.876;2023-04-24T13:32:01;1.25;;;1.05;;
27895;SDS011;15241;48.374;10.876;2023-04-24T13:37:00;2.45;;;0.90;;
27895;SDS011;15241;48.374;10.876;2023-04-24T13:41:59;1.95;;;1.10;;
27895;SDS011;15241;48.374;10.876;2023-04-24T13:46:58;1.98;;;0.88;;
27895;SDS011;15241;48.374;10.876;2023-04-24T13:51:57;3.50;;;1.07;;
27895;SDS011;15241;48.374;10.876;2023-04-24T13:56:57;2.02;;;1.25;;
27895;SDS011;15241;48.374;10.876;2023-04-24T14:01:56;2.42;;;0.90;;
27895;SDS011;15241;48.374;10.876;2023-04-24T14:06:55;0.93;;;0.60;;
27895;SDS011;15241;48.374;10.876;2023-04-24T14:11:54;3.47;;;0.80;;
27895;SDS011;15241;48.374;10.876;2023-04-24T14:16:53;3.22;;;0.88;;
27895;SDS011;15241;48.374;10.876;2023-04-24T14:21:52;4.87;;;1.80;;
27895;SDS011;15241;48.374;10.876;2023-04-24T14:26:51;1.70;;;1.02;;
27895;SDS011;15241;48.374;10.876;2023-04-24T14:31:50;6.67;;;1.67;;
27895;SDS011;15241;48.374;10.876;2023-04-24T14:36:48;4.85;;;0.85;;
27895;SDS011;15241;48.374;10.876;2023-04-24T14:41:47;3.47;;;0.90;;
27895;SDS011;15241;48.374;10.876;2023-04-24T14:46:47;2.20;;;1.10;;
27895;SDS011;15241;48.374;10.876;2023-04-24T14:51:47;0.60;;;0.50;;
27895;SDS011;15241;48.374;10.876;2023-04-24T14:56:45;1.15;;;0.70;;
27895;SDS011;15241;48.374;10.876;2023-04-24T15:01:44;1.02;;;0.72;;
27895;SDS011;15241;48.374;10.876;2023-04-24T15:06:43;1.42;;;0.88;;
27895;SDS011;15241;48.374;10.876;2023-04-24T15:11:42;1.55;;;0.50;;
27895;SDS011;15241;48.374;10.876;2023-04-24T15:16:43;1.55;;;0.70;;
27895;SDS011;15241;48.374;10.876;2023-04-24T15:21:42;1.47;;;0.60;;
27895;SDS011;15241;48.374;10.876;2023-04-24T15:26:41;1.02;;;0.65;;
27895;SDS011;15241;48.374;10.876;2023-04-24T15:31:40;1.52;;;0.82;;
27895;SDS011;15241;48.374;10.876;2023-04-24T15:36:39;1.47;;;0.45;;
27895;SDS011;15241;48.374;10.876;2023-04-24T15:41:39;1.32;;;0.70;;
27895;SDS011;15241;48.374;10.876;2023-04-24T15:46:38;3.02;;;0.80;;
27895;SDS011;15241;48.374;10.876;2023-04-24T15:51:37;1.05;;;0.70;;
27895;SDS011;15241;48.374;10.876;2023-04-24T15:56:36;0.85;;;0.50;;
27895;SDS011;15241;48.374;10.876;2023-04-24T16:01:34;2.02;;;0.62;;
27895;SDS011;15241;48.374;10.876;2023-04-24T16:06:33;0.70;;;0.70;;
27895;SDS011;15241;48.374;10.876;2023-04-24T16:11:33;1.32;;;0.72;;
27895;SDS011;15241;48.374;10.876;2023-04-24T16:16:32;1.27;;;0.90;;
27895;SDS011;15241;48.374;10.876;2023-04-24T16:21:30;1.60;;;0.65;;
27895;SDS011;15241;48.374;10.876;2023-04-24T16:26:29;1.37;;;1.17;;
27895;SDS011;15241;48.374;10.876;2023-04-24T16:31:28;1.52;;;1.00;;
27895;SDS011;15241;48.374;10.876;2023-04-24T16:36:27;1.52;;;0.90;;
27895;SDS011;15241;48.374;10.876;2023-04-24T16:41:26;1.05;;;0.90;;
27895;SDS011;15241;48.374;10.876;2023-04-24T16:46:25;2.35;;;1.00;;
27895;SDS011;15241;48.374;10.876;2023-04-24T16:51:25;5.87;;;0.80;;
27895;SDS011;15241;48.374;10.876;2023-04-24T16:56:24;1.17;;;0.90;;
27895;SDS011;15241;48.374;10.876;2023-04-24T17:01:23;2.87;;;0.95;;
27895;SDS011;15241;48.374;10.876;2023-04-24T17:06:22;1.30;;;1.10;;
27895;SDS011;15241;48.374;10.876;2023-04-24T17:11:21;3.22;;;2.05;;
27895;SDS011;15241;48.374;10.876;2023-04-24T17:16:20;0.70;;;0.70;;
27895;SDS011;15241;48.374;10.876;2023-04-24T17:21:19;1.42;;;0.72;;
27895;SDS011;15241;48.374;10.876;2023-04-24T17:26:18;2.52;;;0.80;;
27895;SDS011;15241;48.374;10.876;2023-04-24T17:31:17;1.72;;;1.02;;
27895;SDS011;15241;48.374;10.876;2023-04-24T17:36:16;2.02;;;0.90;;
27895;SDS011;15241;48.374;10.876;2023-04-24T17:41:15;0.70;;;0.70;;
27895;SDS011;15241;48.374;10.876;2023-04-24T17:46:14;2.17;;;1.00;;
27895;SDS011;15241;48.374;10.876;2023-04-24T17:51:13;1.98;;;1.17;;
27895;SDS011;15241;48.374;10.876;2023-04-24T17:56:12;1.25;;;1.15;;
27895;SDS011;15241;48.374;10.876;2023-04-24T18:01:11;1.20;;;1.10;;
27895;SDS011;15241;48.374;10.876;2023-04-24T18:06:10;3.33;;;1.72;;
27895;SDS011;15241;48.374;10.876;2023-04-24T18:11:09;2.45;;;1.22;;
27895;SDS011;15241;48.374;10.876;2023-04-24T18:16:08;2.37;;;1.65;;
27895;SDS011;15241;48.374;10.876;2023-04-24T18:21:07;4.05;;;1.52;;
27895;SDS011;15241;48.374;10.876;2023-04-24T18:26:06;2.10;;;1.27;;
27895;SDS011;15241;48.374;10.876;2023-04-24T18:31:05;1.72;;;1.57;;
27895;SDS011;15241;48.374;10.876;2023-04-24T18:36:04;3.12;;;1.57;;
27895;SDS011;15241;48.374;10.876;2023-04-24T18:41:03;2.45;;;1.40;;
27895;SDS011;15241;48.374;10.876;2023-04-24T18:46:02;2.27;;;1.67;;
27895;SDS011;15241;48.374;10.876;2023-04-24T18:51:01;2.30;;;2.00;;
27895;SDS011;15241;48.374;10.876;2023-04-24T18:56:00;5.47;;;1.72;;
27895;SDS011;15241;48.374;10.876;2023-04-24T19:00:59;5.35;;;1.62;;
27895;SDS011;15241;48.374;10.876;2023-04-24T19:05:58;2.02;;;1.60;;
27895;SDS011;15241;48.374;10.876;2023-04-24T19:10:57;3.52;;;1.75;;
27895;SDS011;15241;48.374;10.876;2023-04-24T19:15:56;2.75;;;2.15;;
27895;SDS011;15241;48.374;10.876;2023-04-24T19:20:55;4.83;;;2.27;;
27895;SDS011;15241;48.374;10.876;2023-04-24T19:25:54;3.85;;;1.60;;
27895;SDS011;15241;48.374;10.876;2023-04-24T19:30:53;5.10;;;2.50;;
27895;SDS011;15241;48.374;10.876;2023-04-24T19:35:52;2.77;;;2.20;;
27895;SDS011;15241;48.374;10.876;2023-04-24T19:40:51;4.42;;;2.05;;
27895;SDS011;15241;48.374;10.876;2023-04-24T19:45:50;2.40;;;1.98;;
27895;SDS011;15241;48.374;10.876;2023-04-24T19:50:49;2.45;;;1.47;;
27895;SDS011;15241;48.374;10.876;2023-04-24T19:55:49;7.58;;;1.80;;
27895;SDS011;15241;48.374;10.876;2023-04-24T20:00:48;3.40;;;2.20;;
27895;SDS011;15241;48.374;10.876;2023-04-24T20:05:47;3.22;;;2.25;;
27895;SDS011;15241;48.374;10.876;2023-04-24T20:10:46;2.15;;;1.42;;
27895;SDS011;15241;48.374;10.876;2023-04-24T20:15:45;5.05;;;2.20;;
27895;SDS011;15241;48.374;10.876;2023-04-24T20:20:43;2.60;;;1.65;;
27895;SDS011;15241;48.374;10.876;2023-04-24T20:25:53;1.77;;;1.50;;
27895;SDS011;15241;48.374;10.876;2023-04-24T20:30:52;5.08;;;2.00;;
27895;SDS011;15241;48.374;10.876;2023-04-24T20:35:52;4.15;;;1.85;;
27895;SDS011;15241;48.374;10.876;2023-04-24T20:40:51;4.22;;;2.02;;
27895;SDS011;15241;48.374;10.876;2023-04-24T20:45:50;3.58;;;2.70;;
27895;SDS011;15241;48.374;10.876;2023-04-24T20:50:49;2.20;;;1.92;;
27895;SDS011;15241;48.374;10.876;2023-04-24T20:55:48;3.35;;;1.75;;
27895;SDS011;15241;48.374;10.876;2023-04-24T21:00:47;3.70;;;2.17;;
27895;SDS011;15241;48.374;10.876;2023-04-24T21:05:46;5.47;;;2.77;;
27895;SDS011;15241;48.374;10.876;2023-04-24T21:10:45;3.20;;;2.40;;
27895;SDS011;15241;48.374;10.876;2023-04-24T21:15:44;4.75;;;2.83;;
27895;SDS011;15241;48.374;10.876;2023-04-24T21:20:43;2.95;;;2.62;;
27895;SDS011;15241;48.374;10.876;2023-04-24T21:25:42;3.52;;;2.42;;
27895;SDS011;15241;48.374;10.876;2023-04-24T21:30:42;3.25;;;2.42;;
27895;SDS011;15241;48.374;10.876;2023-04-24T21:35:41;4.08;;;2.65;;
27895;SDS011;15241;48.374;10.876;2023-04-24T21:40:40;3.22;;;2.30;;
27895;SDS011;15241;48.374;10.876;2023-04-24T21:45:39;3.92;;;2.20;;
27895;SDS011;15241;48.374;10.876;2023-04-24T21:50:38;3.17;;;1.90;;
27895;SDS011;15241;48.374;10.876;2023-04-24T21:55:37;2.35;;;1.80;;
27895;SDS011;15241;48.374;10.876;2023-04-24T22:00:36;2.02;;;1.62;;
27895;SDS011;15241;48.374;10.876;2023-04-24T22:05:35;2.12;;;1.20;;
27895;SDS011;15241;48.374;10.876;2023-04-24T22:10:34;2.15;;;1.30;;
27895;SDS011;15241;48.374;10.876;2023-04-24T22:15:33;2.27;;;1.37;;
27895;SDS011;15241;48.374;10.876;2023-04-24T22:20:32;4.92;;;1.50;;
27895;SDS011;15241;48.374;10.876;2023-04-24T22:25:31;4.35;;;1.62;;
27895;SDS011;15241;48.374;10.876;2023-04-24T22:30:30;2.15;;;1.62;;
27895;SDS011;15241;48.374;10.876;2023-04-24T22:35:29;2.20;;;1.77;;
27895;SDS011;15241;48.374;10.876;2023-04-24T22:40:28;2.85;;;1.52;;
27895;SDS011;15241;48.374;10.876;2023-04-24T22:45:27;2.22;;;1.65;;
27895;SDS011;15241;48.374;10.876;2023-04-24T22:50:26;2.12;;;1.60;;
27895;SDS011;15241;48.374;10.876;2023-04-24T22:55:25;4.17;;;1.60;;
27895;SDS011;15241;48.374;10.876;2023-04-24T23:00:24;2.87;;;1.50;;
27895;SDS011;15241;48.374;10.876;2023-04-24T23:05:23;2.35;;;1.50;;
27895;SDS011;15241;48.374;10.876;2023-04-24T23:10:22;2.10;;;1.67;;
27895;SDS011;15241;48.374;10.876;2023-04-24T23:15:21;2.25;;;1.87;;
27895;SDS011;15241;48.374;10.876;2023-04-24T23:20:20;2.30;;;1.90;;
27895;SDS011;15241;48.374;10.876;2023-04-24T23:25:19;3.45;;;1.95;;
27895;SDS011;15241;48.374;10.876;2023-04-24T23:30:18;4.12;;;1.65;;
27895;SDS011;15241;48.374;10.876;2023-04-24T23:35:17;2.05;;;1.45;;
27895;SDS011;15241;48.374;10.876;2023-04-24T23:40:16;2.72;;;1.80;;
27895;SDS011;15241;48.374;10.876;2023-04-24T23:45:15;1.80;;;1.65;;
27895;SDS011;15241;48.374;10.876;2023-04-24T23:50:14;2.75;;;1.85;;
27895;SDS011;15241;48.374;10.876;2023-04-24T23:55:13;4.30;;;1.92;;
